Grand Narrows, Canada
Current Conditions -  °F | °C
As of 8:40 PM on Friday 19 Dec 2014 (Local Time) from CYPD Reporting Station
Overcast Overcast  
Wind Chill: 26°   Ceiling: 5500
Heat Index: 32°   Visibility: 9mi
Dew Point: 30°   Wind: 6mph
Humidity: 93%   Direction: 330°NNW
Pressure: 29.79"   Gusts: NA
Location:  45.95°N, 60.78°W
Report Text: CYPD 200040Z AUTO 33005KT 290V010 9SM BKN055 OVC066 M00/M01 A2979 RMK SLP093
Loading
Personal Weather Stations






























Interactive Weather Map New forecast layout! Learn more

10-Day Weather Forecast

Advertisements
Track Severe Weather on mobile